Uniontown, Pennsylvania
Current Conditions -  °F | °C
As of 8:31 AM on Tuesday 21 Oct 2014 (Local Time) from KMGW Reporting Station
Overcast Overcast  
Wind Chill: 53°   Ceiling: 1100
Heat Index: 53°   Visibility: 9mi
Dew Point: 47°   Wind: 5mph
Humidity: 80%   Direction: 220°SW
Pressure: 29.9"   Gusts: NA
Location:  39.9°N, 79.73°W
Report Text: KMGW 211231Z 22004KT 9SM OVC011 12/08 A2990 RMK AO2 T01170083
Loading
Personal Weather Stations






























Interactive Weather Map
Tropical Storm Tracking
New forecast layout! Learn more

10-Day Weather Forecast

Advertisements
Track Severe Weather on mobile